createdAt,value
2022-10-01T00:02:05.050Z,9.1
2022-10-01T00:05:04.996Z,9.1
2022-10-01T00:08:05.004Z,9.1
2022-10-01T00:11:05.010Z,9.1
2022-10-01T00:14:05.014Z,9.1
2022-10-01T00:17:05.039Z,9.1
2022-10-01T00:20:10.638Z,9.1
2022-10-01T00:23:05.026Z,9.1
2022-10-01T00:26:05.029Z,9.1
2022-10-01T00:29:05.041Z,9
2022-10-01T00:32:05.060Z,9
2022-10-01T00:35:05.068Z,9
2022-10-01T00:38:05.059Z,9
2022-10-01T00:41:05.059Z,9
2022-10-01T00:44:05.068Z,9.1
2022-10-01T00:47:05.069Z,9.1
2022-10-01T00:50:05.078Z,9.1
2022-10-01T00:53:05.098Z,9.2
2022-10-01T00:56:05.088Z,9.2
2022-10-01T00:59:05.092Z,9.2
2022-10-01T01:02:05.171Z,9.3
2022-10-01T01:05:05.104Z,9.3
2022-10-01T01:08:05.113Z,9.4
2022-10-01T01:11:05.137Z,9.3
2022-10-01T01:14:05.120Z,9.3
2022-10-01T01:17:05.122Z,9.3
2022-10-01T01:20:05.132Z,9.3
2022-10-01T01:23:05.140Z,9.3
2022-10-01T01:26:05.141Z,9.3
2022-10-01T01:29:05.166Z,9.3
2022-10-01T01:32:05.149Z,9.3
2022-10-01T01:35:05.153Z,9.3
2022-10-01T01:38:05.170Z,9.3
2022-10-01T01:41:05.170Z,9.3
2022-10-01T01:44:05.169Z,9.3
2022-10-01T01:47:05.204Z,9.3
2022-10-01T01:50:05.192Z,9.3
2022-10-01T01:53:05.191Z,9.2
2022-10-01T01:56:05.201Z,9.2
2022-10-01T01:59:05.202Z,9.2
2022-10-01T02:02:05.337Z,9.2
2022-10-01T02:05:05.249Z,9.2
2022-10-01T02:08:05.236Z,9.1
2022-10-01T02:11:05.231Z,9
2022-10-01T02:14:05.234Z,9
2022-10-01T02:17:05.251Z,8.8
2022-10-01T02:20:05.240Z,8.7
2022-10-01T02:23:05.276Z,8.6
2022-10-01T02:26:05.253Z,8.6
2022-10-01T02:29:05.270Z,8.5
2022-10-01T02:32:05.274Z,8.5
2022-10-01T02:35:05.273Z,8.5
2022-10-01T02:38:05.283Z,8.5
2022-10-01T02:41:05.317Z,8.5
2022-10-01T02:44:05.296Z,8.5
2022-10-01T02:47:05.305Z,8.5
2022-10-01T02:50:05.308Z,8.5
2022-10-01T02:53:05.310Z,8.6
2022-10-01T02:56:05.318Z,8.6
2022-10-01T02:59:05.347Z,8.6
2022-10-01T03:02:05.412Z,8.6
2022-10-01T03:05:05.340Z,8.6
2022-10-01T03:08:05.347Z,8.7
2022-10-01T03:11:05.353Z,8.7
2022-10-01T03:14:05.362Z,8.7
2022-10-01T03:17:05.459Z,8.7
2022-10-01T03:20:05.381Z,8.7
2022-10-01T03:23:05.384Z,8.8
2022-10-01T03:26:05.394Z,8.9
2022-10-01T03:29:05.397Z,9.1
2022-10-01T03:32:05.409Z,9.2
2022-10-01T03:35:05.446Z,9.3
2022-10-01T03:38:05.429Z,9.5
2022-10-01T03:41:05.428Z,9.6
2022-10-01T03:44:05.453Z,9.6
2022-10-01T03:47:05.447Z,9.7
2022-10-01T03:50:05.455Z,9.7
2022-10-01T03:53:05.497Z,9.8
2022-10-01T03:56:05.470Z,9.8
2022-10-01T03:59:05.496Z,9.8
2022-10-01T04:02:05.719Z,9.8
2022-10-01T04:05:05.504Z,9.8
2022-10-01T04:08:05.510Z,9.8
2022-10-01T04:11:05.542Z,9.8
2022-10-01T04:14:05.524Z,9.8
2022-10-01T04:17:05.535Z,9.8
2022-10-01T04:20:05.534Z,9.8
2022-10-01T04:23:05.549Z,9.8
2022-10-01T04:26:05.561Z,9.8
2022-10-01T04:29:05.601Z,9.9
2022-10-01T04:32:05.612Z,9.9
2022-10-01T04:35:05.587Z,9.9
2022-10-01T04:38:05.598Z,9.9
2022-10-01T04:41:05.607Z,9.9
2022-10-01T04:44:05.617Z,9.9
2022-10-01T04:47:05.713Z,9.9
2022-10-01T04:50:05.632Z,9.9
2022-10-01T04:53:05.646Z,9.9
2022-10-01T04:56:05.658Z,10
2022-10-01T04:59:05.673Z,10
2022-10-01T05:02:05.738Z,10
2022-10-01T05:05:05.709Z,10
2022-10-01T05:08:05.697Z,10.1
2022-10-01T05:11:05.724Z,10.1
2022-10-01T05:14:05.719Z,10.2
2022-10-01T05:17:05.734Z,10.2
2022-10-01T05:20:05.748Z,10.2
2022-10-01T05:23:05.777Z,10.2
2022-10-01T05:26:05.802Z,10.2
2022-10-01T05:29:05.774Z,10.2
2022-10-01T05:32:05.881Z,10.2
2022-10-01T05:35:05.795Z,10.1
2022-10-01T05:38:05.808Z,10.1
2022-10-01T05:41:05.841Z,10.2
2022-10-01T05:44:05.821Z,10.1
2022-10-01T05:47:05.824Z,10.1
2022-10-01T05:50:05.837Z,10.1
2022-10-01T05:53:05.853Z,10.1
2022-10-01T05:56:05.859Z,10
2022-10-01T05:59:05.886Z,10
2022-10-01T06:02:06.006Z,10
2022-10-01T06:05:05.887Z,9.9
2022-10-01T06:08:05.900Z,9.9
2022-10-01T06:11:05.912Z,9.8
2022-10-01T06:14:05.921Z,9.8
2022-10-01T06:17:05.950Z,9.8
2022-10-01T06:20:05.940Z,9.8
2022-10-01T06:23:05.985Z,9.8
2022-10-01T06:26:05.961Z,9.8
2022-10-01T06:29:05.973Z,9.7
2022-10-01T06:32:05.985Z,9.7
2022-10-01T06:35:06.014Z,9.7
2022-10-01T06:38:05.996Z,9.7
2022-10-01T06:41:06.006Z,9.7
2022-10-01T06:44:06.015Z,9.7
2022-10-01T06:47:06.030Z,9.6
2022-10-01T06:50:06.034Z,9.6
2022-10-01T06:53:06.073Z,9.6
2022-10-01T06:56:06.056Z,9.6
2022-10-01T06:59:06.063Z,9.6
2022-10-01T07:02:06.094Z,9.6
2022-10-01T07:05:06.087Z,9.7
2022-10-01T07:08:06.088Z,9.7
2022-10-01T07:11:06.123Z,9.7
2022-10-01T07:14:06.110Z,9.7
2022-10-01T07:17:06.114Z,9.7
2022-10-01T07:20:06.125Z,9.8
2022-10-01T07:23:06.134Z,9.8
2022-10-01T07:26:06.139Z,9.7
2022-10-01T07:29:06.172Z,9.8
2022-10-01T07:32:06.194Z,9.8
2022-10-01T07:35:06.170Z,9.8
2022-10-01T07:38:06.175Z,9.8
2022-10-01T07:41:06.179Z,9.8
2022-10-01T07:44:06.192Z,9.8
2022-10-01T07:47:06.220Z,9.8
2022-10-01T07:50:06.203Z,9.9
2022-10-01T07:53:06.217Z,9.9
2022-10-01T07:56:06.222Z,9.9
2022-10-01T07:59:06.232Z,10
2022-10-01T08:02:06.292Z,10.1
2022-10-01T08:05:06.263Z,10.1
2022-10-01T08:08:06.251Z,10.1
2022-10-01T08:11:06.258Z,10.1
2022-10-01T08:14:06.253Z,10.2
2022-10-01T08:17:06.266Z,10.2
2022-10-01T08:20:06.272Z,10.2
2022-10-01T08:23:06.304Z,10.2
2022-10-01T08:26:06.297Z,10.2
2022-10-01T08:29:06.305Z,10.2
2022-10-01T08:32:06.306Z,10.2
2022-10-01T08:35:06.304Z,10.3
2022-10-01T08:38:06.317Z,10.3
2022-10-01T08:41:06.345Z,10.4
2022-10-01T08:44:06.323Z,10.4
2022-10-01T08:47:06.325Z,10.5
2022-10-01T08:50:06.332Z,10.6
2022-10-01T08:53:06.335Z,10.6
2022-10-01T08:56:06.338Z,10.6
2022-10-01T08:59:06.370Z,10.6
2022-10-01T09:02:06.338Z,10.6
2022-10-01T09:05:06.339Z,10.6
2022-10-01T09:08:06.338Z,10.6
2022-10-01T09:11:06.345Z,10.6
2022-10-01T09:14:06.349Z,10.5
2022-10-01T09:17:06.376Z,10.6
2022-10-01T09:20:06.353Z,10.6
2022-10-01T09:23:06.359Z,10.6
2022-10-01T09:26:06.360Z,10.7
2022-10-01T09:29:06.366Z,10.7
2022-10-01T09:32:06.429Z,10.8
2022-10-01T09:35:06.394Z,10.9
2022-10-01T09:38:06.369Z,10.9
2022-10-01T09:41:06.368Z,11
2022-10-01T09:44:06.374Z,11
2022-10-01T09:47:06.373Z,11.2
2022-10-01T09:50:06.382Z,11.3
2022-10-01T09:53:06.396Z,11.4
2022-10-01T09:56:06.368Z,11.5
2022-10-01T09:59:06.373Z,11.7
2022-10-01T10:02:06.499Z,11.8
2022-10-01T10:05:06.380Z,11.8
2022-10-01T10:08:06.390Z,11.8
2022-10-01T10:11:06.425Z,11.7
2022-10-01T10:14:06.410Z,11.7
2022-10-01T10:17:06.415Z,11.7
2022-10-01T10:20:06.439Z,11.8
2022-10-01T10:23:06.450Z,11.9
2022-10-01T10:26:06.468Z,12
2022-10-01T10:29:06.506Z,12.1
2022-10-01T10:32:06.497Z,12.4
2022-10-01T10:35:06.511Z,12.9
2022-10-01T10:38:06.549Z,13.2
2022-10-01T10:41:06.550Z,13.6
2022-10-01T10:44:06.570Z,14.1
2022-10-01T10:47:06.610Z,14.6
2022-10-01T10:50:06.599Z,14.8
2022-10-01T10:53:06.624Z,14.8
2022-10-01T10:56:06.634Z,15
2022-10-01T10:59:06.655Z,15
2022-10-01T11:02:06.811Z,14.9
2022-10-01T11:05:06.708Z,14.9
2022-10-01T11:08:06.711Z,15.2
2022-10-01T11:11:06.730Z,15.3
2022-10-01T11:14:06.734Z,15.3
2022-10-01T11:17:06.753Z,15
2022-10-01T11:20:06.761Z,14.9
2022-10-01T11:23:06.817Z,15
2022-10-01T11:26:06.803Z,14.9
2022-10-01T11:29:06.821Z,14.8
2022-10-01T11:32:06.840Z,14.8
2022-10-01T11:35:06.862Z,15
2022-10-01T11:38:06.877Z,15
2022-10-01T11:41:06.996Z,14.8
2022-10-01T11:44:06.924Z,14.6
2022-10-01T11:47:06.942Z,14.4
2022-10-01T11:50:06.949Z,14.2
2022-10-01T11:53:06.956Z,14.3
2022-10-01T11:56:06.982Z,14.3
2022-10-01T11:59:07.029Z,14.3
2022-10-01T12:02:07.064Z,14.3
2022-10-01T12:05:07.078Z,14.3
2022-10-01T12:08:07.054Z,14.2
2022-10-01T12:11:07.074Z,14.1
2022-10-01T12:14:07.089Z,14.1
2022-10-01T12:17:07.134Z,14.2
2022-10-01T12:20:07.134Z,14.5
2022-10-01T12:23:07.153Z,14.8
2022-10-01T12:26:07.174Z,15.1
2022-10-01T12:29:07.192Z,15.4
2022-10-01T12:32:07.216Z,15.6
2022-10-01T12:35:07.264Z,15.6
2022-10-01T12:38:07.255Z,15.6
2022-10-01T12:41:07.275Z,15.4
2022-10-01T12:44:07.292Z,15.1
2022-10-01T12:47:07.316Z,15
2022-10-01T12:50:07.337Z,14.8
2022-10-01T12:53:07.385Z,14.6
2022-10-01T12:56:07.373Z,14.6
2022-10-01T12:59:07.388Z,14.6
2022-10-01T13:02:07.465Z,14.6
2022-10-01T13:05:07.444Z,14.5
2022-10-01T13:08:07.473Z,14.4
2022-10-01T13:11:07.514Z,14.5
2022-10-01T13:14:07.513Z,14.7
2022-10-01T13:17:07.531Z,14.9
2022-10-01T13:20:07.605Z,15
2022-10-01T13:23:07.576Z,15.3
2022-10-01T13:26:07.598Z,15.4
2022-10-01T13:29:07.661Z,15.6
2022-10-01T13:32:07.645Z,15.8
2022-10-01T13:35:07.654Z,16.1
2022-10-01T13:38:07.676Z,16.2
2022-10-01T13:41:07.688Z,16.4
2022-10-01T13:44:07.721Z,16.4
2022-10-01T13:47:07.741Z,16.3
2022-10-01T13:50:07.820Z,16.2
2022-10-01T13:53:07.763Z,16.1
2022-10-01T13:56:07.793Z,15.8
2022-10-01T13:59:07.817Z,15.7
2022-10-01T14:02:07.916Z,15.8
2022-10-01T14:05:07.865Z,16.2
2022-10-01T14:08:11.484Z,16.4
2022-10-01T14:11:07.885Z,16.6
2022-10-01T14:14:07.910Z,16.6
2022-10-01T14:17:07.913Z,16.6
2022-10-01T14:20:07.931Z,16.5
2022-10-01T14:23:07.968Z,16.4
2022-10-01T14:26:07.956Z,16.3
2022-10-01T14:29:08.023Z,16.3
2022-10-01T14:32:07.987Z,16.3
2022-10-01T14:35:08.003Z,16.2
2022-10-01T14:38:08.015Z,16
2022-10-01T14:41:08.047Z,15.9
2022-10-01T14:44:08.062Z,15.8
2022-10-01T14:47:08.068Z,15.7
2022-10-01T14:50:08.098Z,15.6
2022-10-01T14:53:08.104Z,15.4
2022-10-01T14:56:08.127Z,15.2
2022-10-01T14:59:08.187Z,15.1
2022-10-01T15:02:08.170Z,15
2022-10-01T15:05:08.230Z,15
2022-10-01T15:08:08.208Z,15
2022-10-01T15:11:08.225Z,15
2022-10-01T15:14:08.254Z,15
2022-10-01T15:17:08.285Z,15
2022-10-01T15:20:08.285Z,14.1
2022-10-01T15:23:08.306Z,13.2
2022-10-01T15:26:08.320Z,12.6
2022-10-01T15:29:08.345Z,12.3
2022-10-01T15:32:08.349Z,12.1
2022-10-01T15:35:08.395Z,11.9
2022-10-01T15:38:08.403Z,11.9
2022-10-01T15:41:30.358Z,11.8
2022-10-01T15:44:08.456Z,11.8
2022-10-01T15:47:08.465Z,11.8
2022-10-01T15:50:08.486Z,11.8
2022-10-01T15:53:08.537Z,11.8
2022-10-01T15:56:08.532Z,11.7
2022-10-01T15:59:08.564Z,11.7
2022-10-01T16:02:08.728Z,11.6
2022-10-01T16:05:08.583Z,11.6
2022-10-01T16:08:08.606Z,11.6
2022-10-01T16:11:08.650Z,11.6
2022-10-01T16:14:08.659Z,11.5
2022-10-01T16:17:08.662Z,11.5
2022-10-01T16:20:08.676Z,11.4
2022-10-01T16:23:08.692Z,11.3
2022-10-01T16:26:08.776Z,11.3
2022-10-01T16:29:08.805Z,11.2
2022-10-01T16:32:08.779Z,11.1
2022-10-01T16:35:08.779Z,11
2022-10-01T16:38:08.802Z,11
2022-10-01T16:41:08.829Z,10.9
2022-10-01T16:44:08.863Z,10.8
2022-10-01T16:47:08.904Z,10.8
2022-10-01T16:50:08.889Z,10.7
2022-10-01T16:53:08.907Z,10.7
2022-10-01T16:56:08.928Z,10.6
2022-10-01T16:59:08.960Z,10.6
2022-10-01T17:02:08.989Z,10.6
2022-10-01T17:05:09.006Z,10.5
2022-10-01T17:08:08.996Z,10.5
2022-10-01T17:11:12.492Z,10.5
2022-10-01T17:14:09.042Z,10.5
2022-10-01T17:17:09.051Z,10.5
2022-10-01T17:20:09.073Z,10.5
2022-10-01T17:23:09.121Z,10.5
2022-10-01T17:26:09.130Z,10.4
2022-10-01T17:29:09.158Z,10.4
2022-10-01T17:32:09.221Z,10.4
2022-10-01T17:35:09.190Z,10.5
2022-10-01T17:38:09.219Z,10.5
2022-10-01T17:41:09.259Z,10.6
2022-10-01T17:44:09.282Z,10.6
2022-10-01T17:47:09.275Z,10.5
2022-10-01T17:50:09.289Z,10.5
2022-10-01T17:53:09.314Z,10.6
2022-10-01T17:56:09.339Z,10.6
2022-10-01T17:59:09.384Z,10.7
2022-10-01T18:02:23.852Z,10.8
2022-10-01T18:05:09.397Z,10.8
2022-10-01T18:08:09.397Z,10.8
2022-10-01T18:11:09.428Z,10.8
2022-10-01T18:14:09.472Z,10.8
2022-10-01T18:17:09.521Z,10.8
2022-10-01T18:20:09.522Z,10.7
2022-10-01T18:23:09.537Z,10.7
2022-10-01T18:26:09.569Z,10.7
2022-10-01T18:29:09.613Z,10.7
2022-10-01T18:32:09.636Z,10.6
2022-10-01T18:35:09.685Z,10.6
2022-10-01T18:38:09.675Z,10.6
2022-10-01T18:41:09.689Z,10.6
2022-10-01T18:44:09.735Z,10.6
2022-10-01T18:47:09.746Z,10.6
2022-10-01T18:50:09.759Z,10.6
2022-10-01T18:53:09.812Z,10.5
2022-10-01T18:56:09.846Z,10.5
2022-10-01T18:59:09.841Z,10.5
2022-10-01T19:02:09.976Z,10.5
2022-10-01T19:05:09.868Z,10.6
2022-10-01T19:08:09.899Z,10.6
2022-10-01T19:11:11.618Z,10.6
2022-10-01T19:14:09.957Z,10.6
2022-10-01T19:17:09.978Z,10.6
2022-10-01T19:20:09.997Z,10.5
2022-10-01T19:23:10.019Z,10.6
2022-10-01T19:26:10.041Z,10.6
2022-10-01T19:29:10.085Z,10.6
2022-10-01T19:32:10.065Z,10.6
2022-10-01T19:35:10.083Z,10.7
2022-10-01T19:38:10.092Z,10.6
2022-10-01T19:41:10.111Z,10.6
2022-10-01T19:44:10.141Z,10.6
2022-10-01T19:47:10.187Z,10.6
2022-10-01T19:50:10.168Z,10.6
2022-10-01T19:53:10.182Z,10.6
2022-10-01T19:56:10.196Z,10.6
2022-10-01T19:59:10.223Z,10.6
2022-10-01T20:02:10.279Z,10.6
2022-10-01T20:05:10.265Z,10.6
2022-10-01T20:08:10.258Z,10.6
2022-10-01T20:11:10.270Z,10.6
2022-10-01T20:14:10.290Z,10.6
2022-10-01T20:17:10.295Z,10.6
2022-10-01T20:20:10.305Z,10.7
2022-10-01T20:23:10.339Z,10.6
2022-10-01T20:26:10.331Z,10.6
2022-10-01T20:29:10.358Z,10.6
2022-10-01T20:32:10.355Z,10.6
2022-10-01T20:35:10.371Z,10.6
2022-10-01T20:38:10.390Z,10.6
2022-10-01T20:41:10.432Z,10.6
2022-10-01T20:44:10.457Z,10.6
2022-10-01T20:47:10.433Z,10.6
2022-10-01T20:50:10.439Z,10.6
2022-10-01T20:53:10.456Z,10.5
2022-10-01T20:56:10.465Z,10.5
2022-10-01T20:59:10.514Z,10.5
2022-10-01T21:02:10.552Z,10.5
2022-10-01T21:05:10.514Z,10.5
2022-10-01T21:08:10.530Z,10.5
2022-10-01T21:11:10.567Z,10.5
2022-10-01T21:14:10.600Z,10.4
2022-10-01T21:17:10.615Z,10.4
2022-10-01T21:20:10.597Z,10.4
2022-10-01T21:23:10.621Z,10.4
2022-10-01T21:26:10.634Z,10.3
2022-10-01T21:29:10.657Z,10.3
2022-10-01T21:32:10.665Z,10.3
2022-10-01T21:35:10.705Z,10.4
2022-10-01T21:38:10.698Z,10.4
2022-10-01T21:41:10.703Z,10.4
2022-10-01T21:44:11.326Z,10.3
2022-10-01T21:47:10.729Z,10.4
2022-10-01T21:50:10.747Z,10.4
2022-10-01T21:53:10.877Z,10.4
2022-10-01T21:56:10.785Z,10.4
2022-10-01T21:59:10.819Z,10.4
2022-10-01T22:02:10.875Z,10.4
2022-10-01T22:05:10.837Z,10.4
2022-10-01T22:08:10.856Z,10.4
2022-10-01T22:11:10.894Z,10.4
2022-10-01T22:14:10.907Z,10.4
2022-10-01T22:17:10.899Z,10.4
2022-10-01T22:20:10.911Z,10.3
2022-10-01T22:23:10.937Z,10.3
2022-10-01T22:26:10.937Z,10.3
2022-10-01T22:29:11.061Z,10.3
2022-10-01T22:32:10.965Z,10.3
2022-10-01T22:35:10.995Z,10.3
2022-10-01T22:38:10.996Z,10.3
2022-10-01T22:41:11.020Z,10.3
2022-10-01T22:44:11.040Z,10.3
2022-10-01T22:47:11.082Z,10.3
2022-10-01T22:50:11.070Z,10.3
2022-10-01T22:53:11.108Z,10.3
2022-10-01T22:56:11.127Z,10.3
2022-10-01T22:59:11.152Z,10.3
2022-10-01T23:02:11.206Z,10.2
2022-10-01T23:05:11.196Z,10.3
2022-10-01T23:08:11.195Z,10.2
2022-10-01T23:11:11.204Z,10.2
2022-10-01T23:14:11.227Z,10.2
2022-10-01T23:17:11.240Z,10.1
2022-10-01T23:20:11.263Z,10.2
2022-10-01T23:23:11.289Z,10.1
2022-10-01T23:26:11.282Z,10.2
2022-10-01T23:29:11.308Z,10.2
2022-10-01T23:32:11.326Z,10.2
2022-10-01T23:35:11.349Z,10.3
2022-10-01T23:38:11.363Z,10.3
2022-10-01T23:41:11.415Z,10.3
2022-10-01T23:44:11.419Z,10.3
2022-10-01T23:47:11.430Z,10.3
2022-10-01T23:50:11.461Z,10.3
2022-10-01T23:53:11.471Z,10.2
2022-10-01T23:56:11.489Z,10.2
2022-10-01T23:59:11.548Z,10.2
